Time;durP1;ratioP1;P1;durP2;ratioP2;P2;SDS_P1;SDS_P2;PMS_P1;PMS_P2;Temp;Humidity;BMP_temperature;BMP_pressure;BME280_temperature;BME280_humidity;BME280_pressure;Samples;Min_cycle;Max_cycle;Signal;HPM_P1;HPM_P2
2022/05/02 00:00:47;;;;;;;3.33;2.53;;;;;;;;;;5033572;28;20214;-91
2022/05/02 00:03:21;;;;;;;4.70;3.10;;;;;;;;;;5033627;28;20191;-90
2022/05/02 00:05:48;;;;;;;4.30;3.00;;;;;;;;;;5033839;28;20213;-90
2022/05/02 00:08:17;;;;;;;3.10;2.40;;;;;;;;;;5033496;28;20690;-90
2022/05/02 00:10:44;;;;;;;3.17;2.97;;;;;;;;;;5033347;28;20222;-90
2022/05/02 00:13:15;;;;;;;2.90;2.70;;;;;;;;;;5033330;28;20289;-91
2022/05/02 00:15:51;;;;;;;4.07;2.70;;;;;;;;;;5014163;28;20238;-90
2022/05/02 00:18:21;;;;;;;5.60;3.20;;;;;;;;;;5013916;28;20217;-91
2022/05/02 00:20:48;;;;;;;6.07;2.83;;;;;;;;;;5013342;28;20235;-91
2022/05/02 00:23:17;;;;;;;7.77;3.17;;;;;;;;;;5013177;28;20207;-89
2022/05/02 00:25:44;;;;;;;3.87;3.07;;;;;;;;;;5013895;28;20278;-90
2022/05/02 00:28:21;;;;;;;3.63;3.20;;;;;;;;;;5013220;28;20199;-90
2022/05/02 00:30:48;;;;;;;4.07;2.70;;;;;;;;;;5013910;28;20195;-90
2022/05/02 00:33:25;;;;;;;3.90;2.67;;;;;;;;;;5013647;28;20215;-91
2022/05/02 00:35:52;;;;;;;2.80;2.50;;;;;;;;;;5013452;28;20195;-91
2022/05/02 00:38:21;;;;;;;3.93;3.00;;;;;;;;;;5012936;28;20290;-91
2022/05/02 00:40:48;;;;;;;2.60;2.40;;;;;;;;;;5013491;28;20202;-90
2022/05/02 00:43:17;;;;;;;7.33;2.80;;;;;;;;;;5013477;28;20241;-91
2022/05/02 00:45:44;;;;;;;3.77;3.37;;;;;;;;;;5013754;28;20195;-91
2022/05/02 00:48:14;;;;;;;3.40;3.10;;;;;;;;;;5013145;28;20206;-91
2022/05/02 00:50:44;;;;;;;3.53;3.10;;;;;;;;;;5013224;28;20255;-91
2022/05/02 00:53:22;;;;;;;3.97;3.40;;;;;;;;;;5013355;28;20277;-91
2022/05/02 00:55:52;;;;;;;4.57;3.30;;;;;;;;;;5013143;28;20188;-91
2022/05/02 00:58:20;;;;;;;5.30;2.93;;;;;;;;;;5013195;28;20193;-90
2022/05/02 01:00:47;;;;;;;4.30;3.17;;;;;;;;;;5013476;28;20282;-91
2022/05/02 01:03:14;;;;;;;3.90;3.30;;;;;;;;;;5013646;28;20221;-90
2022/05/02 01:08:27;;;;;;;6.17;3.33;;;;;;;;;;5012517;28;20179;-91
2022/05/02 01:10:55;;;;;;;4.27;3.00;;;;;;;;;;5013096;28;20249;-91
2022/05/02 01:13:36;;;;;;;4.10;2.90;;;;;;;;;;5014203;28;20652;-91
2022/05/02 01:16:18;;;;;;;3.00;2.80;;;;;;;;;;5033035;28;20643;-90
2022/05/02 01:18:50;;;;;;;4.43;3.23;;;;;;;;;;5032615;28;20289;-91
2022/05/02 01:21:20;;;;;;;3.30;3.00;;;;;;;;;;5032689;28;20225;-91
2022/05/02 01:23:50;;;;;;;6.80;3.40;;;;;;;;;;5032638;28;20249;-90
2022/05/02 01:26:17;;;;;;;4.10;3.40;;;;;;;;;;5032656;28;20198;-92
2022/05/02 01:28:46;;;;;;;5.47;3.30;;;;;;;;;;5032646;28;20282;-91
2022/05/02 01:31:25;;;;;;;3.63;3.33;;;;;;;;;;5033054;28;20222;-91
2022/05/02 01:33:52;;;;;;;3.40;2.97;;;;;;;;;;5033826;28;20198;-91
2022/05/02 01:36:25;;;;;;;3.27;2.97;;;;;;;;;;5036417;28;20285;-91
2022/05/02 01:38:53;;;;;;;5.63;3.60;;;;;;;;;;5036559;28;20721;-91
2022/05/02 01:41:20;;;;;;;8.03;3.50;;;;;;;;;;5036556;28;20687;-90
2022/05/02 01:43:50;;;;;;;3.40;3.10;;;;;;;;;;5036026;28;20256;-91
2022/05/02 01:46:18;;;;;;;3.57;3.23;;;;;;;;;;5036390;28;20563;-90
2022/05/02 01:48:45;;;;;;;3.13;2.93;;;;;;;;;;5035996;28;20286;-92
2022/05/02 01:51:12;;;;;;;3.73;3.43;;;;;;;;;;5036229;28;20212;-90
2022/05/02 01:53:43;;;;;;;3.27;3.07;;;;;;;;;;5036395;28;20285;-91
2022/05/02 01:56:20;;;;;;;6.60;3.67;;;;;;;;;;5036022;28;20213;-91
2022/05/02 01:58:47;;;;;;;2.90;2.60;;;;;;;;;;5036166;28;20198;-93
2022/05/02 02:01:14;;;;;;;5.90;3.30;;;;;;;;;;5036308;28;20219;-90
2022/05/02 02:03:51;;;;;;;3.40;3.13;;;;;;;;;;5036439;28;20203;-93
2022/05/02 02:06:22;;;;;;;4.93;2.93;;;;;;;;;;5036267;28;20281;-93
2022/05/02 02:08:51;;;;;;;4.67;3.27;;;;;;;;;;5035790;28;20226;-93
2022/05/02 02:11:19;;;;;;;4.63;3.80;;;;;;;;;;5035531;28;20681;-93
2022/05/02 02:13:52;;;;;;;3.40;3.10;;;;;;;;;;5036064;28;20664;-91
2022/05/02 02:16:19;;;;;;;4.33;3.60;;;;;;;;;;5036360;28;20277;-91
2022/05/02 02:18:50;;;;;;;5.23;3.40;;;;;;;;;;5036136;28;20199;-90
2022/05/02 02:21:20;;;;;;;3.13;2.93;;;;;;;;;;5035838;28;20289;-92
2022/05/02 02:23:47;;;;;;;6.53;4.33;;;;;;;;;;5035621;28;20198;-93
2022/05/02 02:26:16;;;;;;;3.33;3.03;;;;;;;;;;5035337;28;20198;-91
2022/05/02 02:28:49;;;;;;;4.30;3.90;;;;;;;;;;5035792;28;20201;-93
2022/05/02 02:31:16;;;;;;;5.97;4.80;;;;;;;;;;5035498;28;20205;-91
2022/05/02 02:33:46;;;;;;;4.03;3.73;;;;;;;;;;5035494;28;20197;-93
2022/05/02 02:36:13;;;;;;;4.73;3.53;;;;;;;;;;5035401;28;20289;-93
2022/05/02 02:38:41;;;;;;;7.57;3.23;;;;;;;;;;5035536;28;20241;-93
2022/05/02 02:44:10;;;;;;;4.13;3.77;;;;;;;;;;5033021;28;20238;-93
2022/05/02 02:53:40;;;;;;;3.90;3.60;;;;;;;;;;4975625;28;20246;-93
2022/05/02 02:56:18;;;;;;;6.67;3.50;;;;;;;;;;4975723;28;20233;-93
2022/05/02 02:59:11;;;;;;;3.97;3.13;;;;;;;;;;4975142;28;20666;-94
2022/05/02 03:29:17;;;;;;;6.10;4.10;;;;;;;;;;4902041;28;20231;-92
2022/05/02 04:34:03;;;;;;;4.40;4.00;;;;;;;;;;4784610;30;20181;-93
2022/05/02 04:36:31;;;;;;;6.30;4.80;;;;;;;;;;4856391;29;20232;-94
2022/05/02 04:38:58;;;;;;;4.63;3.77;;;;;;;;;;4878484;29;20209;-93
2022/05/02 04:41:25;;;;;;;4.57;3.93;;;;;;;;;;4878115;29;20216;-92
2022/05/02 04:43:53;;;;;;;3.93;3.63;;;;;;;;;;4878549;29;20229;-93
2022/05/02 04:46:21;;;;;;;6.43;5.10;;;;;;;;;;4878455;29;20663;-92
2022/05/02 04:48:51;;;;;;;9.83;5.00;;;;;;;;;;4877990;29;20205;-94
2022/05/02 04:51:20;;;;;;;6.30;5.73;;;;;;;;;;4944595;29;20666;-92
2022/05/02 04:53:47;;;;;;;5.50;5.00;;;;;;;;;;4979456;28;20227;-95
2022/05/02 04:56:14;;;;;;;6.00;5.47;;;;;;;;;;5013389;28;20207;-93
2022/05/02 04:58:42;;;;;;;5.77;5.27;;;;;;;;;;5013185;28;20563;-92
2022/05/02 05:01:09;;;;;;;4.77;4.37;;;;;;;;;;5012948;28;20278;-92
2022/05/02 05:03:37;;;;;;;5.43;4.50;;;;;;;;;;5013002;28;20219;-93
2022/05/02 05:06:04;;;;;;;5.20;4.80;;;;;;;;;;5012953;28;20195;-93
2022/05/02 05:08:33;;;;;;;4.77;4.30;;;;;;;;;;5012082;28;20199;-93
2022/05/02 05:11:07;;;;;;;6.13;4.77;;;;;;;;;;5013038;28;20196;-93
2022/05/02 05:13:41;;;;;;;5.50;4.67;;;;;;;;;;5013142;28;20269;-91
2022/05/02 05:16:24;;;;;;;4.87;4.40;;;;;;;;;;5013147;28;20210;-91
2022/05/02 05:19:04;;;;;;;11.20;4.57;;;;;;;;;;5016300;28;20241;-91
2022/05/02 05:21:42;;;;;;;4.77;4.37;;;;;;;;;;5032587;28;20199;-91
2022/05/02 05:25:03;;;;;;;6.77;5.30;;;;;;;;;;5032577;28;20214;-90
2022/05/02 05:27:53;;;;;;;5.63;4.67;;;;;;;;;;5012873;28;20192;-88
2022/05/02 05:30:22;;;;;;;5.10;4.60;;;;;;;;;;5012891;28;20195;-91
2022/05/02 05:32:57;;;;;;;8.00;5.30;;;;;;;;;;5012404;28;20253;-91
2022/05/02 05:35:25;;;;;;;5.73;4.80;;;;;;;;;;5013206;28;20570;-91
2022/05/02 05:38:03;;;;;;;7.27;4.70;;;;;;;;;;5012832;28;20218;-92
2022/05/02 05:40:42;;;;;;;6.57;4.70;;;;;;;;;;5013075;28;20211;-92
2022/05/02 05:43:23;;;;;;;5.00;4.47;;;;;;;;;;5012970;28;20191;-92
2022/05/02 05:46:03;;;;;;;5.30;4.80;;;;;;;;;;5012854;28;20278;-91
2022/05/02 05:48:38;;;;;;;5.13;4.63;;;;;;;;;;5013387;28;20210;-92
2022/05/02 05:51:25;;;;;;;4.57;3.83;;;;;;;;;;5012988;28;20187;-92
2022/05/02 05:53:59;;;;;;;6.20;4.17;;;;;;;;;;5012848;28;20703;-92
2022/05/02 05:56:39;;;;;;;4.63;4.23;;;;;;;;;;5012901;28;20203;-92
2022/05/02 05:59:08;;;;;;;4.20;3.87;;;;;;;;;;5012898;28;20656;-91
2022/05/02 06:01:53;;;;;;;5.63;3.87;;;;;;;;;;5014037;28;20596;-91
2022/05/02 06:04:24;;;;;;;5.10;3.73;;;;;;;;;;5012111;28;20219;-90
2022/05/02 06:06:51;;;;;;;3.90;3.60;;;;;;;;;;5012639;28;20278;-90
2022/05/02 06:09:19;;;;;;;7.37;3.67;;;;;;;;;;5012859;28;20206;-93
2022/05/02 06:11:49;;;;;;;5.10;3.00;;;;;;;;;;5012609;28;20239;-93
2022/05/02 06:14:16;;;;;;;3.17;2.87;;;;;;;;;;5012359;28;20225;-93
2022/05/02 06:19:30;;;;;;;4.47;3.00;;;;;;;;;;5013464;28;20280;-94
2022/05/02 06:21:58;;;;;;;2.93;2.63;;;;;;;;;;5015912;28;20211;-93
2022/05/02 06:24:27;;;;;;;2.53;2.33;;;;;;;;;;5015753;28;20212;-92
2022/05/02 06:26:56;;;;;;;4.33;2.90;;;;;;;;;;5015748;28;20203;-93
2022/05/02 06:29:24;;;;;;;2.70;2.50;;;;;;;;;;5015963;28;20218;-93
2022/05/02 06:31:54;;;;;;;2.53;2.30;;;;;;;;;;5015903;28;20198;-92
2022/05/02 06:34:24;;;;;;;4.80;3.13;;;;;;;;;;5015627;28;20248;-93
2022/05/02 06:37:05;;;;;;;3.07;2.67;;;;;;;;;;5015805;28;20219;-93
2022/05/02 06:39:51;;;;;;;3.87;3.40;;;;;;;;;;5014722;28;20238;-91
2022/05/02 06:42:24;;;;;;;3.13;2.20;;;;;;;;;;5016856;28;20210;-86
2022/05/02 06:45:04;;;;;;;5.43;3.37;;;;;;;;;;5015203;28;20200;-87
2022/05/02 06:47:39;;;;;;;3.40;3.10;;;;;;;;;;5015706;28;20654;-84
2022/05/02 06:50:08;;;;;;;2.93;2.73;;;;;;;;;;5021096;28;20202;-85
2022/05/02 06:52:41;;;;;;;6.50;2.57;;;;;;;;;;5034115;28;20224;-86
2022/05/02 06:55:18;;;;;;;3.10;2.80;;;;;;;;;;5034243;28;20633;-83
2022/05/02 06:58:07;;;;;;;3.00;2.43;;;;;;;;;;5034078;28;20192;-85
2022/05/02 07:00:37;;;;;;;6.27;3.10;;;;;;;;;;5033687;28;20202;-85
2022/05/02 07:03:32;;;;;;;4.03;3.07;;;;;;;;;;5033788;28;20732;-85
2022/05/02 07:06:06;;;;;;;2.97;2.77;;;;;;;;;;5022367;28;20210;-85
2022/05/02 07:08:40;;;;;;;4.63;3.47;;;;;;;;;;5034272;28;20319;-84
2022/05/02 07:11:10;;;;;;;5.73;3.97;;;;;;;;;;5033734;28;20229;-84
2022/05/02 07:13:53;;;;;;;3.37;3.03;;;;;;;;;;5033630;28;20275;-85
2022/05/02 07:16:23;;;;;;;4.37;3.10;;;;;;;;;;5033562;28;20187;-85
2022/05/02 07:19:15;;;;;;;2.70;2.50;;;;;;;;;;5033309;28;20226;-83
2022/05/02 07:21:48;;;;;;;3.80;2.90;;;;;;;;;;5033317;28;20195;-82
2022/05/02 07:24:19;;;;;;;3.40;2.57;;;;;;;;;;5033200;28;20179;-82
2022/05/02 07:26:55;;;;;;;2.70;2.50;;;;;;;;;;5033520;28;20190;-80
2022/05/02 07:29:25;;;;;;;2.70;2.50;;;;;;;;;;5032792;28;20193;-80
2022/05/02 07:31:53;;;;;;;4.17;2.57;;;;;;;;;;5025666;28;20260;-83
2022/05/02 07:34:20;;;;;;;8.97;3.03;;;;;;;;;;5013346;28;20215;-83
2022/05/02 07:36:51;;;;;;;2.60;2.40;;;;;;;;;;5013362;28;20199;-83
2022/05/02 07:39:19;;;;;;;4.53;2.73;;;;;;;;;;5013173;28;20200;-83
2022/05/02 07:41:47;;;;;;;4.03;2.57;;;;;;;;;;5012620;28;20231;-83
2022/05/02 07:44:16;;;;;;;3.07;2.70;;;;;;;;;;5031388;28;20198;-83
2022/05/02 07:46:45;;;;;;;3.23;2.60;;;;;;;;;;5027178;28;20225;-82
2022/05/02 07:49:16;;;;;;;4.83;3.00;;;;;;;;;;5033124;28;20281;-82
2022/05/02 07:51:46;;;;;;;2.87;2.67;;;;;;;;;;5032665;28;20187;-83
2022/05/02 07:54:17;;;;;;;3.80;3.40;;;;;;;;;;5032634;28;20213;-83
2022/05/02 07:56:48;;;;;;;7.47;5.83;;;;;;;;;;5033243;28;20689;-84
2022/05/02 07:59:17;;;;;;;3.37;3.10;;;;;;;;;;5032639;28;20190;-83
2022/05/02 08:01:45;;;;;;;2.83;2.47;;;;;;;;;;5032981;28;20203;-80
2022/05/02 08:04:13;;;;;;;4.57;2.57;;;;;;;;;;5032746;28;20218;-80
2022/05/02 08:07:04;;;;;;;6.33;5.73;;;;;;;;;;5033081;28;20219;-80
2022/05/02 08:09:49;;;;;;;3.37;3.07;;;;;;;;;;5032853;28;20187;-80
2022/05/02 08:12:24;;;;;;;4.60;3.53;;;;;;;;;;5032964;28;20214;-80
2022/05/02 08:14:56;;;;;;;3.60;3.13;;;;;;;;;;5032148;28;20683;-80
2022/05/02 08:17:36;;;;;;;12.27;6.27;;;;;;;;;;5032816;28;20567;-80
2022/05/02 08:20:11;;;;;;;4.80;3.30;;;;;;;;;;5032266;28;20238;-81
2022/05/02 08:28:28;;;;;;;4.80;3.30;;;;;;;;;;5021336;28;20199;-80
2022/05/02 08:31:00;;;;;;;3.47;3.07;;;;;;;;;;5019415;28;20199;-81
2022/05/02 08:33:31;;;;;;;9.77;3.70;;;;;;;;;;5012895;28;20220;-82
2022/05/02 08:35:59;;;;;;;20.77;11.53;;;;;;;;;;5014725;28;20202;-80
2022/05/02 08:38:42;;;;;;;14.17;8.97;;;;;;;;;;5012849;28;20223;-81
2022/05/02 08:41:39;;;;;;;7.60;5.13;;;;;;;;;;5009932;28;20586;-81
2022/05/02 08:44:43;;;;;;;5.77;4.10;;;;;;;;;;4959684;28;20356;-80
2022/05/02 08:47:39;;;;;;;3.30;2.50;;;;;;;;;;5015557;28;20207;-81
2022/05/02 08:50:20;;;;;;;4.60;2.80;;;;;;;;;;5012180;28;20283;-80
2022/05/02 08:53:26;;;;;;;2.37;2.17;;;;;;;;;;5012168;28;20188;-81
2022/05/02 08:56:10;;;;;;;2.17;1.97;;;;;;;;;;5013470;28;20194;-80
2022/05/02 08:59:20;;;;;;;2.63;2.20;;;;;;;;;;5032347;28;20187;-81
2022/05/02 09:02:15;;;;;;;3.70;2.53;;;;;;;;;;5030240;28;20221;-80
2022/05/02 09:05:17;;;;;;;4.90;3.93;;;;;;;;;;5027768;28;20769;-80
2022/05/02 09:08:08;;;;;;;4.43;2.57;;;;;;;;;;5011816;28;20265;-81
2022/05/02 09:10:51;;;;;;;2.67;2.23;;;;;;;;;;5012018;28;20227;-81
2022/05/02 09:13:49;;;;;;;14.93;3.60;;;;;;;;;;5012265;28;20209;-81
2022/05/02 09:16:49;;;;;;;2.13;2.00;;;;;;;;;;5020769;28;20204;-81
2022/05/02 09:19:50;;;;;;;2.63;2.27;;;;;;;;;;4986226;28;20257;-82
2022/05/02 09:22:57;;;;;;;3.00;2.27;;;;;;;;;;5030068;28;20239;-81
2022/05/02 09:25:35;;;;;;;3.80;2.17;;;;;;;;;;5026229;28;20226;-81
2022/05/02 09:28:20;;;;;;;1.93;1.80;;;;;;;;;;5032299;28;20218;-83
2022/05/02 09:31:25;;;;;;;6.30;2.90;;;;;;;;;;5031634;28;20211;-81
2022/05/02 09:34:10;;;;;;;3.30;3.00;;;;;;;;;;5025392;28;20602;-81
2022/05/02 09:36:44;;;;;;;4.10;2.30;;;;;;;;;;5031591;28;20203;-81
2022/05/02 09:39:14;;;;;;;3.03;2.83;;;;;;;;;;5031362;28;20198;-80
2022/05/02 09:42:14;;;;;;;4.73;2.10;;;;;;;;;;5031306;28;20193;-81
2022/05/02 09:51:35;;;;;;;2.87;1.90;;;;;;;;;;5007626;28;20210;-80
2022/05/02 09:54:06;;;;;;;8.73;2.50;;;;;;;;;;5029214;28;20267;-81
2022/05/02 09:56:41;;;;;;;4.10;3.50;;;;;;;;;;5035416;28;20191;-81
2022/05/02 09:59:09;;;;;;;2.93;2.07;;;;;;;;;;5035058;28;20186;-81
2022/05/02 10:01:43;;;;;;;3.63;2.50;;;;;;;;;;5035223;28;20204;-80
2022/05/02 10:04:19;;;;;;;2.37;2.03;;;;;;;;;;5034826;28;20199;-81
2022/05/02 10:06:50;;;;;;;1.80;1.70;;;;;;;;;;5035358;28;20189;-82
2022/05/02 10:09:52;;;;;;;3.23;2.37;;;;;;;;;;5034967;28;20542;-81
2022/05/02 10:12:25;;;;;;;3.53;2.60;;;;;;;;;;5034784;28;20196;-81
2022/05/02 10:15:03;;;;;;;2.77;2.50;;;;;;;;;;5034826;28;20784;-81
2022/05/02 10:18:02;;;;;;;3.07;2.70;;;;;;;;;;5034835;28;20285;-81
2022/05/02 10:20:42;;;;;;;3.00;2.30;;;;;;;;;;5017912;28;20241;-81
2022/05/02 10:23:25;;;;;;;5.50;2.97;;;;;;;;;;5035010;28;20267;-81
2022/05/02 10:25:56;;;;;;;3.30;2.60;;;;;;;;;;5034453;28;20201;-81
2022/05/02 10:29:04;;;;;;;2.13;2.03;;;;;;;;;;5034941;28;20190;-81
2022/05/02 10:31:35;;;;;;;2.33;2.13;;;;;;;;;;5034426;28;20207;-81
2022/05/02 10:34:04;;;;;;;2.70;2.50;;;;;;;;;;5034308;28;20249;-81
2022/05/02 10:36:38;;;;;;;2.07;1.97;;;;;;;;;;5034560;28;20202;-81
2022/05/02 10:39:17;;;;;;;4.80;2.53;;;;;;;;;;5034229;28;20225;-81
2022/05/02 10:41:47;;;;;;;4.33;2.87;;;;;;;;;;5034194;28;20194;-81
2022/05/02 10:44:17;;;;;;;2.10;1.83;;;;;;;;;;5034053;28;20190;-82
2022/05/02 10:46:45;;;;;;;2.47;2.27;;;;;;;;;;5034283;28;20675;-83
2022/05/02 10:49:21;;;;;;;2.53;2.33;;;;;;;;;;5032805;28;20222;-85
2022/05/02 10:51:56;;;;;;;3.17;2.53;;;;;;;;;;5033845;28;20209;-84
2022/05/02 10:54:41;;;;;;;3.97;2.67;;;;;;;;;;5034150;28;20597;-83
2022/05/02 10:57:26;;;;;;;4.80;2.83;;;;;;;;;;5014728;28;20602;-84
2022/05/02 10:59:54;;;;;;;4.90;2.67;;;;;;;;;;5013758;28;20189;-83
2022/05/02 11:02:55;;;;;;;3.50;3.10;;;;;;;;;;5014166;28;20229;-84
2022/05/02 11:05:28;;;;;;;3.17;2.87;;;;;;;;;;5014246;28;20189;-84
2022/05/02 11:08:03;;;;;;;2.50;2.40;;;;;;;;;;5014143;28;20279;-84
2022/05/02 11:10:32;;;;;;;3.33;2.50;;;;;;;;;;5014074;28;20188;-83
2022/05/02 11:13:20;;;;;;;2.73;2.53;;;;;;;;;;5013864;28;20197;-83
2022/05/02 11:15:58;;;;;;;4.83;3.80;;;;;;;;;;5013696;28;20216;-83
2022/05/02 11:21:24;;;;;;;9.60;4.20;;;;;;;;;;5013820;28;20270;-85
2022/05/02 11:24:11;;;;;;;4.77;3.00;;;;;;;;;;5027129;28;20704;-85
2022/05/02 11:26:45;;;;;;;4.17;3.10;;;;;;;;;;5033617;28;20196;-84
2022/05/02 11:29:21;;;;;;;5.47;3.33;;;;;;;;;;5033782;28;20330;-83
2022/05/02 11:31:54;;;;;;;3.67;3.37;;;;;;;;;;5033642;28;20192;-84
2022/05/02 11:34:29;;;;;;;12.03;4.70;;;;;;;;;;5033694;28;20212;-84
2022/05/02 11:36:58;;;;;;;4.00;2.27;;;;;;;;;;5033764;28;20599;-84
2022/05/02 11:39:37;;;;;;;2.43;2.20;;;;;;;;;;5033375;28;20204;-84
2022/05/02 11:42:15;;;;;;;4.80;2.57;;;;;;;;;;5033049;28;20644;-83
2022/05/02 11:44:49;;;;;;;3.23;2.93;;;;;;;;;;5033031;28;20188;-82
2022/05/02 11:47:29;;;;;;;3.27;2.40;;;;;;;;;;5033156;28;20242;-84
2022/05/02 11:50:04;;;;;;;7.67;3.37;;;;;;;;;;5032925;28;20196;-83
2022/05/02 11:52:33;;;;;;;2.70;2.50;;;;;;;;;;5033079;28;20602;-82
2022/05/02 11:55:02;;;;;;;4.27;2.70;;;;;;;;;;5033065;28;20222;-82
2022/05/02 11:57:36;;;;;;;4.13;3.03;;;;;;;;;;5032908;28;20319;-82
2022/05/02 12:00:08;;;;;;;4.50;2.70;;;;;;;;;;5032472;28;20191;-80
2022/05/02 12:02:58;;;;;;;2.80;2.60;;;;;;;;;;5031692;28;20193;-82
2022/05/02 12:05:27;;;;;;;3.00;2.50;;;;;;;;;;5031763;28;20182;-79
2022/05/02 12:07:56;;;;;;;2.40;2.20;;;;;;;;;;5031838;28;20197;-80
2022/05/02 12:10:34;;;;;;;3.90;2.40;;;;;;;;;;5031856;28;20215;-80
2022/05/02 12:13:01;;;;;;;4.50;2.90;;;;;;;;;;5031885;28;20199;-80
2022/05/02 12:15:29;;;;;;;6.03;3.23;;;;;;;;;;5031837;28;20697;-80
2022/05/02 12:17:59;;;;;;;3.07;2.80;;;;;;;;;;5031013;28;20656;-81
2022/05/02 12:20:31;;;;;;;3.57;3.17;;;;;;;;;;5031534;28;20237;-80
2022/05/02 12:23:05;;;;;;;4.73;3.00;;;;;;;;;;5031750;28;20191;-81
2022/05/02 12:25:34;;;;;;;3.57;2.30;;;;;;;;;;5031668;28;20542;-80
2022/05/02 12:28:04;;;;;;;7.07;3.13;;;;;;;;;;5031485;28;20580;-80
2022/05/02 12:30:32;;;;;;;2.73;2.53;;;;;;;;;;5030990;28;20200;-81
2022/05/02 12:33:04;;;;;;;3.47;2.57;;;;;;;;;;5031273;28;20671;-80
2022/05/02 12:35:36;;;;;;;2.80;2.60;;;;;;;;;;5030966;28;20229;-81
2022/05/02 12:38:13;;;;;;;2.60;2.40;;;;;;;;;;5031317;28;20206;-81
2022/05/02 12:40:43;;;;;;;7.17;5.90;;;;;;;;;;5030942;28;20576;-80
2022/05/02 12:43:12;;;;;;;18.87;12.67;;;;;;;;;;5031454;28;20569;-80
2022/05/02 12:45:46;;;;;;;8.40;7.07;;;;;;;;;;5030908;28;20197;-81
2022/05/02 12:48:22;;;;;;;4.20;2.87;;;;;;;;;;5031067;28;20194;-80
2022/05/02 12:50:51;;;;;;;16.53;14.50;;;;;;;;;;5030671;28;20276;-81
2022/05/02 12:56:06;;;;;;;2.63;2.43;;;;;;;;;;5030380;28;20770;-80
2022/05/02 13:01:21;;;;;;;9.70;8.53;;;;;;;;;;5030879;28;20308;-80
2022/05/02 13:03:55;;;;;;;3.80;3.10;;;;;;;;;;5031081;28;20202;-80
2022/05/02 13:06:23;;;;;;;7.03;5.13;;;;;;;;;;5030730;28;20216;-80
2022/05/02 13:08:50;;;;;;;3.30;2.97;;;;;;;;;;5030570;28;20288;-80
2022/05/02 13:11:21;;;;;;;3.73;2.93;;;;;;;;;;5030957;28;20284;-80
2022/05/02 13:13:52;;;;;;;3.47;2.50;;;;;;;;;;5030749;28;20669;-80
2022/05/02 13:16:26;;;;;;;4.97;2.50;;;;;;;;;;5030804;28;20258;-80
2022/05/02 13:18:54;;;;;;;31.10;21.53;;;;;;;;;;5030229;28;20232;-80
2022/05/02 13:21:21;;;;;;;7.17;6.57;;;;;;;;;;5030485;28;20288;-80
2022/05/02 13:23:49;;;;;;;7.93;3.97;;;;;;;;;;5030999;28;20222;-80
2022/05/02 13:26:30;;;;;;;3.33;2.97;;;;;;;;;;5030182;28;20206;-81
2022/05/02 13:29:04;;;;;;;3.80;2.77;;;;;;;;;;5030811;28;20191;-80
2022/05/02 13:31:36;;;;;;;4.43;3.90;;;;;;;;;;5034207;28;20642;-80
2022/05/02 13:34:06;;;;;;;12.40;8.07;;;;;;;;;;5034765;28;20184;-80
2022/05/02 13:36:45;;;;;;;5.90;5.30;;;;;;;;;;5034361;28;20242;-80
2022/05/02 13:39:16;;;;;;;4.30;3.70;;;;;;;;;;5034845;28;20191;-80
2022/05/02 13:41:49;;;;;;;4.93;4.33;;;;;;;;;;5034474;28;20636;-80
2022/05/02 13:44:27;;;;;;;7.30;5.83;;;;;;;;;;5033878;28;20198;-80
2022/05/02 13:46:55;;;;;;;10.70;7.27;;;;;;;;;;5034383;28;20194;-80
2022/05/02 13:49:32;;;;;;;5.87;3.17;;;;;;;;;;5033879;28;20384;-81
2022/05/02 13:52:07;;;;;;;3.83;3.20;;;;;;;;;;5034823;28;20219;-80
2022/05/02 13:54:39;;;;;;;3.37;2.90;;;;;;;;;;5033896;28;20206;-81
2022/05/02 13:57:16;;;;;;;5.57;2.20;;;;;;;;;;5033714;28;20652;-79
2022/05/02 13:59:55;;;;;;;3.43;3.13;;;;;;;;;;5034251;28;20270;-80
2022/05/02 14:02:47;;;;;;;2.30;2.10;;;;;;;;;;5034216;28;20194;-80
2022/05/02 14:05:24;;;;;;;3.07;2.40;;;;;;;;;;5033711;28;20190;-80
2022/05/02 14:07:54;;;;;;;3.70;3.40;;;;;;;;;;5034317;28;20306;-80
2022/05/02 14:10:24;;;;;;;4.37;3.23;;;;;;;;;;5033812;28;20431;-80
2022/05/02 14:12:53;;;;;;;2.73;2.53;;;;;;;;;;5033904;28;20202;-80
2022/05/02 14:15:20;;;;;;;3.73;3.40;;;;;;;;;;5033467;28;20788;-80
2022/05/02 14:17:51;;;;;;;5.33;2.93;;;;;;;;;;5033654;28;20619;-80
2022/05/02 14:20:23;;;;;;;3.33;3.10;;;;;;;;;;5033488;28;20235;-80
2022/05/02 14:22:57;;;;;;;3.10;2.73;;;;;;;;;;5033990;28;20557;-80
2022/05/02 14:25:26;;;;;;;2.50;2.30;;;;;;;;;;5033048;28;20195;-80
2022/05/02 14:27:56;;;;;;;5.23;4.73;;;;;;;;;;5028867;28;20203;-82
2022/05/02 14:30:26;;;;;;;4.43;2.70;;;;;;;;;;5013928;28;20200;-82
2022/05/02 14:32:54;;;;;;;3.40;3.10;;;;;;;;;;5013389;28;20676;-82
2022/05/02 14:35:26;;;;;;;5.00;2.60;;;;;;;;;;5013748;28;20939;-82
2022/05/02 14:37:55;;;;;;;4.13;2.00;;;;;;;;;;5013608;28;20207;-81
2022/05/02 14:40:23;;;;;;;3.83;2.63;;;;;;;;;;5012888;28;20203;-80
2022/05/02 14:42:51;;;;;;;4.17;2.90;;;;;;;;;;5013228;28;20204;-81
2022/05/02 14:45:20;;;;;;;4.37;3.17;;;;;;;;;;5013393;28;20230;-80
2022/05/02 14:47:49;;;;;;;4.30;3.90;;;;;;;;;;5013669;28;20682;-80
2022/05/02 14:50:18;;;;;;;4.17;3.07;;;;;;;;;;5013512;28;20680;-80
2022/05/02 14:52:47;;;;;;;3.60;3.30;;;;;;;;;;5013205;28;20199;-81
2022/05/02 14:55:15;;;;;;;9.40;3.27;;;;;;;;;;5013390;28;20225;-80
2022/05/02 14:57:46;;;;;;;7.80;3.30;;;;;;;;;;5013981;28;20262;-80
2022/05/02 15:00:14;;;;;;;7.77;6.87;;;;;;;;;;5014620;28;20195;-80
2022/05/02 15:02:44;;;;;;;4.00;3.37;;;;;;;;;;5014109;28;20210;-80
2022/05/02 15:05:14;;;;;;;3.40;3.20;;;;;;;;;;5014174;28;20192;-81
2022/05/02 15:07:57;;;;;;;4.43;4.13;;;;;;;;;;5014270;28;20679;-80
2022/05/02 15:10:41;;;;;;;7.23;5.33;;;;;;;;;;5013854;28;20194;-80
2022/05/02 15:13:25;;;;;;;4.93;4.37;;;;;;;;;;5014300;28;20195;-81
2022/05/02 15:15:53;;;;;;;7.27;4.83;;;;;;;;;;5013922;28;20294;-80
2022/05/02 15:19:33;;;;;;;10.73;9.47;;;;;;;;;;5014526;28;20196;-80
2022/05/02 15:21:42;;;;;;;8.23;4.60;;;;;;;;;;5033112;28;20199;-80
2022/05/02 15:24:52;;;;;;;4.20;3.80;;;;;;;;;;5033433;28;20179;-80
2022/05/02 15:39:00;;;;;;;3.87;2.93;;;;;;;;;;5033468;28;20202;-83
2022/05/02 15:42:02;;;;;;;9.73;4.27;;;;;;;;;;5032942;28;20187;-83
2022/05/02 15:44:31;;;;;;;6.63;5.43;;;;;;;;;;5033236;28;20269;-83
2022/05/02 15:47:05;;;;;;;8.17;5.10;;;;;;;;;;5032290;28;20206;-83
2022/05/02 15:49:34;;;;;;;5.70;4.23;;;;;;;;;;5032860;28;20193;-83
2022/05/02 15:52:08;;;;;;;3.60;3.30;;;;;;;;;;5032222;28;20659;-83
2022/05/02 15:54:38;;;;;;;5.33;3.80;;;;;;;;;;5032597;28;20183;-83
2022/05/02 15:57:48;;;;;;;4.27;3.73;;;;;;;;;;5032424;28;20317;-83
2022/05/02 16:00:27;;;;;;;4.50;3.57;;;;;;;;;;5028476;28;20202;-83
2022/05/02 16:03:24;;;;;;;7.23;4.87;;;;;;;;;;5012847;28;20215;-78
2022/05/02 16:06:22;;;;;;;7.27;6.67;;;;;;;;;;4952621;29;20182;-84
2022/05/02 16:11:42;;;;;;;7.97;6.57;;;;;;;;;;5011474;28;20272;-80
2022/05/02 16:14:16;;;;;;;17.23;12.97;;;;;;;;;;5036542;28;20191;-81
2022/05/02 16:16:48;;;;;;;15.13;8.53;;;;;;;;;;5032953;28;20214;-78
2022/05/02 16:19:15;;;;;;;10.67;9.07;;;;;;;;;;5033128;28;20318;-82
2022/05/02 16:21:43;;;;;;;8.13;6.87;;;;;;;;;;5032256;28;20257;-81
2022/05/02 16:24:13;;;;;;;7.53;6.73;;;;;;;;;;5032461;28;20198;-82
2022/05/02 16:26:43;;;;;;;11.33;8.07;;;;;;;;;;5032569;28;20648;-81
2022/05/02 16:29:16;;;;;;;10.30;9.10;;;;;;;;;;5032272;28;20198;-82
2022/05/02 16:31:43;;;;;;;16.67;14.20;;;;;;;;;;5032298;28;20197;-82
2022/05/02 16:34:12;;;;;;;14.47;11.13;;;;;;;;;;5032005;28;20195;-82
2022/05/02 16:36:41;;;;;;;6.13;5.57;;;;;;;;;;5032135;28;20309;-83
2022/05/02 16:39:13;;;;;;;6.87;6.17;;;;;;;;;;5031950;28;20208;-82
2022/05/02 16:41:42;;;;;;;5.07;4.57;;;;;;;;;;5032339;28;20558;-82
2022/05/02 16:44:10;;;;;;;7.97;5.53;;;;;;;;;;5032379;28;20633;-82
2022/05/02 16:46:37;;;;;;;12.43;8.67;;;;;;;;;;5032012;28;20562;-82
2022/05/02 16:49:08;;;;;;;8.13;7.43;;;;;;;;;;5031745;28;20204;-81
2022/05/02 16:51:35;;;;;;;7.23;6.07;;;;;;;;;;5032023;28;20185;-82
2022/05/02 16:54:04;;;;;;;6.37;4.23;;;;;;;;;;5031974;28;20584;-82
2022/05/02 16:56:37;;;;;;;5.30;4.23;;;;;;;;;;5030547;28;20782;-81
2022/05/02 16:59:04;;;;;;;6.80;4.90;;;;;;;;;;5030638;28;20632;-82
2022/05/02 17:01:32;;;;;;;11.00;7.03;;;;;;;;;;5031772;28;20680;-82
2022/05/02 17:04:03;;;;;;;18.43;12.00;;;;;;;;;;5031619;28;20213;-82
2022/05/02 17:06:31;;;;;;;16.23;10.70;;;;;;;;;;5031840;28;20195;-82
2022/05/02 17:09:10;;;;;;;11.77;10.57;;;;;;;;;;5031381;28;20257;-82
2022/05/02 17:11:39;;;;;;;13.30;11.83;;;;;;;;;;5031555;28;20193;-81
2022/05/02 17:14:07;;;;;;;21.40;15.83;;;;;;;;;;5028209;28;20198;-82
2022/05/02 17:16:35;;;;;;;19.37;15.80;;;;;;;;;;5031440;28;20225;-82
2022/05/02 17:19:05;;;;;;;15.57;11.13;;;;;;;;;;5031623;28;20242;-82
2022/05/02 17:21:35;;;;;;;15.53;13.00;;;;;;;;;;5030169;28;20208;-83
2022/05/02 17:24:05;;;;;;;10.47;9.13;;;;;;;;;;5031753;28;20240;-82
2022/05/02 17:26:45;;;;;;;26.97;18.40;;;;;;;;;;5031666;28;20628;-82
2022/05/02 17:29:13;;;;;;;36.10;23.93;;;;;;;;;;5031569;28;20218;-83
2022/05/02 17:31:47;;;;;;;24.93;18.83;;;;;;;;;;5031492;28;20202;-83
2022/05/02 17:34:15;;;;;;;15.57;10.30;;;;;;;;;;5031406;28;20186;-85
2022/05/02 17:36:50;;;;;;;12.23;8.90;;;;;;;;;;5031241;28;20245;-86
2022/05/02 17:39:22;;;;;;;8.63;6.67;;;;;;;;;;5031190;28;20201;-84
2022/05/02 17:42:12;;;;;;;24.93;14.90;;;;;;;;;;5031243;28;20199;-85
2022/05/02 17:44:43;;;;;;;41.33;20.33;;;;;;;;;;5030987;28;20190;-86